LATI/TIA METAR and TAF weather

Enter ICAO airport designator
Station Type Date Time Source
LATI METAR 2021/01/17 19:20 UTC NOAA

LATI 171920Z 14002KT 9999 SCT055 BKN090 M01/M06 Q1016 NOSIG


Station Type Date Time Source
LATI Decoded METAR 2021/01/17 19:20 UTC NOAA

Tirana, Albania (LATI) 41-20N 019-47E 90M
Jan 17, 2021 - 02:20 PM EST / 2021.01.17 1920 UTC
Wind: from the SE (140 degrees) at 2 MPH (2 KT):0
Visibility: greater than 7 mile(s):0
Sky conditions: mostly cloudy
Temperature: 30 F (-1 C)
Dew Point: 21 F (-6 C)
Relative Humidity: 68%
Pressure (altimeter): 30.00 in. Hg (1016 hPa)
ob: LATI 171920Z 14002KT 9999 SCT055 BKN090 M01/M06 Q1016 NOSIG
cycle: 19

Station Type Date Time Source
LATI TAF 2021/01/17 18:06 UTC NOAA

TAF LATI 171700Z 1718/1818 VRB05KT CAVOK TX08/1812Z TNM07/1806Z

Example: see airport list